Time;durP1;ratioP1;P1;durP2;ratioP2;P2;SDS_P1;SDS_P2;PMS_P1;PMS_P2;Temp;Humidity;BMP_temperature;BMP_pressure;BME280_temperature;BME280_humidity;BME280_pressure;Samples;Min_cycle;Max_cycle;Signal;HPM_P1;HPM_P2
2023/10/13 00:00:29;;;;;;;17.92;7.68;;;;;;;16.42;100.00;101143.38;6082097;19;20570;-72
2023/10/13 00:02:39;;;;;;;19.77;8.32;;;;;;;16.41;100.00;101144.34;6084873;19;20462;-72
2023/10/13 00:04:46;;;;;;;20.02;9.20;;;;;;;16.44;100.00;101144.16;6086682;19;20003;-72
2023/10/13 00:06:51;;;;;;;20.45;8.63;;;;;;;16.38;100.00;101145.38;6086759;19;20013;-73
2023/10/13 00:08:56;;;;;;;20.88;9.82;;;;;;;16.31;100.00;101141.38;6086120;19;20386;-72
2023/10/13 00:11:02;;;;;;;18.80;8.90;;;;;;;16.36;100.00;101141.13;6089649;19;20011;-72
2023/10/13 00:13:15;;;;;;;24.92;10.15;;;;;;;16.34;100.00;101135.88;6084363;19;20457;-72
2023/10/13 00:15:27;;;;;;;23.20;10.27;;;;;;;16.31;100.00;101133.44;6087751;19;20003;-71
2023/10/13 00:17:32;;;;;;;27.60;11.07;;;;;;;16.35;100.00;101129.66;6088590;19;20863;-72
2023/10/13 00:19:46;;;;;;;29.77;11.85;;;;;;;16.32;100.00;101123.66;6089176;19;20030;-74
2023/10/13 00:21:51;;;;;;;24.00;12.25;;;;;;;16.29;100.00;101118.56;6084609;19;20011;-73
2023/10/13 00:23:57;;;;;;;24.85;10.65;;;;;;;16.28;100.00;101119.50;6086585;19;20011;-74
2023/10/13 00:26:03;;;;;;;31.85;14.55;;;;;;;16.29;100.00;101127.34;6087209;19;20015;-71
2023/10/13 00:28:09;;;;;;;26.52;12.25;;;;;;;16.33;100.00;101117.44;6086896;19;20027;-72
2023/10/13 00:30:22;;;;;;;37.75;14.82;;;;;;;16.32;100.00;101115.72;6087002;19;20018;-72
2023/10/13 00:32:27;;;;;;;28.98;12.05;;;;;;;16.28;100.00;101111.56;6088951;19;20014;-71
2023/10/13 00:34:33;;;;;;;24.98;11.38;;;;;;;16.30;100.00;101110.50;6085106;19;20392;-73
2023/10/13 00:36:48;;;;;;;29.20;12.15;;;;;;;16.34;100.00;101105.88;6088875;19;20019;-73
2023/10/13 00:38:56;;;;;;;39.42;15.05;;;;;;;16.30;100.00;101099.03;6087343;19;20749;-73
2023/10/13 00:41:03;;;;;;;32.63;13.93;;;;;;;16.30;100.00;101109.63;6087611;19;20075;-73
2023/10/13 00:45:28;;;;;;;36.97;14.20;;;;;;;16.33;100.00;101091.75;6088176;19;19998;-73
2023/10/13 00:47:47;;;;;;;32.75;13.82;;;;;;;16.32;100.00;101087.38;6089224;19;20008;-74
2023/10/13 00:49:53;;;;;;;35.40;13.15;;;;;;;16.32;100.00;101092.69;5979346;19;2004728;-72
2023/10/13 00:51:58;;;;;;;33.50;12.57;;;;;;;16.34;100.00;101087.31;6087490;19;20027;-72
2023/10/13 00:54:12;;;;;;;33.55;15.27;;;;;;;16.35;100.00;101087.22;6084039;19;20028;-72
2023/10/13 00:56:19;;;;;;;32.05;12.82;;;;;;;16.32;100.00;101086.53;6087275;19;20013;-72
2023/10/13 00:58:27;;;;;;;35.15;13.52;;;;;;;16.34;100.00;101071.38;6085795;19;20014;-73
2023/10/13 01:00:29;;;;;;;28.85;12.70;;;;;;;16.29;100.00;101073.47;6085763;19;20662;-72
2023/10/13 01:02:41;;;;;;;28.23;12.23;;;;;;;16.31;100.00;101068.94;6085819;19;20584;-75
2023/10/13 01:04:46;;;;;;;27.45;12.43;;;;;;;16.38;100.00;101067.63;6086575;19;20029;-72
2023/10/13 01:06:51;;;;;;;28.65;11.48;;;;;;;16.36;100.00;101059.75;6087178;19;20021;-72
2023/10/13 01:09:10;;;;;;;25.60;11.80;;;;;;;16.32;100.00;101060.00;6083323;19;20470;-72
2023/10/13 01:11:17;;;;;;;28.77;11.50;;;;;;;16.30;100.00;101059.25;6085512;19;20010;-73
2023/10/13 01:13:21;;;;;;;25.77;11.57;;;;;;;16.32;100.00;101055.56;6084820;19;20490;-72
2023/10/13 01:15:30;;;;;;;28.17;10.95;;;;;;;16.31;100.00;101047.72;6083051;19;20015;-71
2023/10/13 01:17:33;;;;;;;24.48;11.80;;;;;;;16.30;100.00;101053.94;6085585;19;20003;-72
2023/10/13 01:19:43;;;;;;;30.95;11.05;;;;;;;16.29;100.00;101054.91;6085799;19;20019;-72
2023/10/13 01:21:48;;;;;;;21.40;10.02;;;;;;;16.32;100.00;101046.75;6087261;19;20049;-73
2023/10/13 01:23:58;;;;;;;22.15;9.60;;;;;;;16.32;100.00;101050.25;6085643;19;20014;-71
2023/10/13 01:26:05;;;;;;;25.48;9.70;;;;;;;16.30;100.00;101033.59;6087823;19;20006;-73
2023/10/13 01:28:15;;;;;;;20.80;10.93;;;;;;;16.35;100.00;101038.59;6087178;19;20014;-73
2023/10/13 01:30:22;;;;;;;23.67;10.88;;;;;;;16.30;100.00;101041.56;6086951;19;20006;-72
2023/10/13 01:32:27;;;;;;;21.65;10.07;;;;;;;16.29;100.00;101037.19;6078094;19;20130;-73
2023/10/13 01:34:33;;;;;;;23.40;9.55;;;;;;;16.30;100.00;101030.06;6086774;19;20014;-72
2023/10/13 01:36:40;;;;;;;25.55;10.60;;;;;;;16.30;100.00;101024.78;6086597;19;20014;-72
2023/10/13 01:38:46;;;;;;;23.42;10.15;;;;;;;16.31;100.00;101030.00;6085120;19;20010;-72
2023/10/13 01:40:56;;;;;;;21.63;9.43;;;;;;;16.32;100.00;101021.09;6085652;19;20003;-73
2023/10/13 01:42:59;;;;;;;24.40;10.95;;;;;;;16.29;100.00;101013.31;6086348;19;20442;-72
2023/10/13 01:45:07;;;;;;;24.40;9.60;;;;;;;16.31;100.00;101019.38;6086108;19;20341;-72
2023/10/13 01:47:12;;;;;;;26.88;9.98;;;;;;;16.26;100.00;101020.63;6085635;19;20037;-72
2023/10/13 01:49:22;;;;;;;26.83;10.43;;;;;;;16.32;100.00;101018.44;6083588;19;20037;-72
2023/10/13 01:51:28;;;;;;;20.95;8.90;;;;;;;16.28;100.00;101008.13;6086442;19;20323;-73
2023/10/13 01:53:33;;;;;;;22.48;9.65;;;;;;;16.29;100.00;101009.81;6083598;19;20053;-72
2023/10/13 01:55:39;;;;;;;21.02;8.65;;;;;;;16.27;100.00;101011.72;6086013;19;20014;-72
2023/10/13 01:57:50;;;;;;;26.65;9.73;;;;;;;16.27;100.00;100998.44;6079743;19;19999;-72
2023/10/13 01:59:52;;;;;;;21.75;9.00;;;;;;;16.27;100.00;100998.44;6084530;19;20011;-71
2023/10/13 02:02:00;;;;;;;23.02;10.48;;;;;;;16.22;100.00;100996.09;6083348;19;20010;-72
2023/10/13 02:04:04;;;;;;;21.98;9.43;;;;;;;16.17;100.00;100985.78;6086155;19;20015;-72
2023/10/13 02:06:17;;;;;;;20.88;8.20;;;;;;;16.18;100.00;100979.50;6085425;19;20074;-72
2023/10/13 02:08:22;;;;;;;;;;;;;;;16.17;100.00;100964.56;6087347;19;20014;-72
2023/10/13 02:10:30;;;;;;;22.08;8.07;;;;;;;16.16;100.00;100965.50;6084450;19;19936;-72
2023/10/13 02:12:37;;;;;;;17.90;8.15;;;;;;;16.12;100.00;100956.03;6086338;19;20011;-72
2023/10/13 02:14:45;;;;;;;18.70;7.88;;;;;;;16.14;100.00;100964.75;6086623;19;20011;-72
2023/10/13 02:16:50;;;;;;;27.23;9.80;;;;;;;16.16;100.00;100965.50;6086371;19;20377;-73
2023/10/13 02:18:57;;;;;;;22.30;9.48;;;;;;;16.13;100.00;100956.88;6087738;19;20029;-74
2023/10/13 02:21:04;;;;;;;19.40;9.00;;;;;;;16.12;100.00;100955.19;6087551;19;20468;-72
2023/10/13 02:23:10;;;;;;;23.02;9.20;;;;;;;16.12;100.00;100949.91;6087598;19;20010;-72
2023/10/13 02:25:16;;;;;;;23.92;9.65;;;;;;;16.10;100.00;100955.28;6095346;19;20027;-72
2023/10/13 02:27:23;;;;;;;23.52;8.95;;;;;;;16.08;100.00;100951.88;6089823;19;20014;-72
2023/10/13 02:29:26;;;;;;;23.67;9.63;;;;;;;16.09;100.00;100950.94;6095463;19;20024;-74
2023/10/13 02:31:33;;;;;;;24.35;9.32;;;;;;;16.13;100.00;100940.97;6096514;19;20024;-73
2023/10/13 02:33:44;;;;;;;25.65;8.95;;;;;;;16.13;100.00;100933.88;6096577;19;20405;-72
2023/10/13 02:35:56;;;;;;;21.15;9.48;;;;;;;16.10;100.00;100920.81;6096067;19;20453;-73
2023/10/13 02:37:58;;;;;;;21.88;8.70;;;;;;;16.07;100.00;100918.34;6092600;19;20030;-74
2023/10/13 02:40:04;;;;;;;;;;;;;;;16.06;100.00;100905.19;6091252;19;20011;-72
2023/10/13 02:42:07;;;;;;;27.65;9.65;;;;;;;16.04;100.00;100902.66;6095331;19;19953;-73
2023/10/13 02:44:20;;;;;;;19.70;7.95;;;;;;;16.02;100.00;100897.44;6097301;19;20017;-74
2023/10/13 02:46:23;;;;;;;21.85;9.10;;;;;;;16.01;100.00;100894.91;6097307;19;20006;-73
2023/10/13 02:48:39;;;;;;;17.48;8.02;;;;;;;16.09;100.00;100902.34;6089466;19;20370;-74
2023/10/13 02:51:01;;;;;;;21.50;7.55;;;;;;;16.05;100.00;100887.59;6094547;19;20470;-72
2023/10/13 02:53:12;;;;;;;21.88;9.10;;;;;;;16.05;100.00;100890.25;6088653;19;20021;-75
2023/10/13 02:55:25;;;;;;;20.95;8.27;;;;;;;16.02;100.00;100883.34;6090601;19;20052;-73
2023/10/13 02:57:34;;;;;;;;;;;;;;;16.00;100.00;100886.06;6091365;19;20106;-72
2023/10/13 02:59:40;;;;;;;20.05;7.20;;;;;;;15.99;100.00;100886.19;6089470;19;19910;-74
2023/10/13 03:01:46;;;;;;;15.50;6.95;;;;;;;16.01;100.00;100879.00;6089706;19;20086;-75
2023/10/13 03:03:54;;;;;;;18.20;7.68;;;;;;;15.98;100.00;100868.56;6088683;19;20024;-73
2023/10/13 03:06:02;;;;;;;15.07;6.78;;;;;;;15.98;100.00;100871.22;6091877;19;20226;-73
2023/10/13 03:08:06;;;;;;;18.90;7.10;;;;;;;15.98;100.00;100876.50;6082369;19;20007;-73
2023/10/13 03:10:15;;;;;;;16.60;6.32;;;;;;;16.00;100.00;100856.06;6089449;19;20371;-72
2023/10/13 03:12:17;;;;;;;23.13;7.47;;;;;;;15.96;100.00;100843.97;6088967;19;20015;-74
2023/10/13 03:14:30;;;;;;;20.60;6.72;;;;;;;15.94;100.00;100832.59;6090016;19;20006;-74
2023/10/13 03:16:34;;;;;;;16.95;6.45;;;;;;;15.93;100.00;100815.88;6088046;19;20037;-73
2023/10/13 03:18:51;;;;;;;15.65;7.13;;;;;;;15.92;100.00;100810.66;6089787;19;20566;-73
2023/10/13 03:20:59;;;;;;;19.38;6.57;;;;;;;15.96;100.00;100812.16;6088166;19;20594;-74
2023/10/13 03:23:09;;;;;;;14.05;6.60;;;;;;;15.93;100.00;100809.69;6089640;19;20033;-74
2023/10/13 03:25:17;;;;;;;12.02;5.28;;;;;;;15.96;100.00;100809.50;6091437;19;21265;-74
2023/10/13 03:27:34;;;;;;;12.05;5.22;;;;;;;15.91;100.00;100807.16;6091457;19;20358;-73
2023/10/13 03:29:46;;;;;;;10.75;5.05;;;;;;;15.81;100.00;100795.44;6088828;19;20340;-74
2023/10/13 03:32:06;;;;;;;14.27;5.93;;;;;;;15.85;100.00;100782.81;6084199;19;20011;-72
2023/10/13 03:34:12;;;;;;;15.43;4.47;;;;;;;15.81;100.00;100768.94;6090807;19;20066;-72
2023/10/13 03:36:55;;;;;;;14.70;5.20;;;;;;;15.77;100.00;100770.94;6088184;19;20366;-73
2023/10/13 03:38:54;;;;;;;18.75;6.47;;;;;;;15.77;100.00;100765.63;5985951;19;2005000;-73
2023/10/13 03:41:18;;;;;;;10.70;5.30;;;;;;;15.78;100.00;100758.53;6090477;19;20095;-73
2023/10/13 03:43:24;;;;;;;15.35;6.22;;;;;;;15.78;100.00;100753.22;6089961;19;20251;-73
2023/10/13 03:45:36;;;;;;;15.48;6.00;;;;;;;15.77;100.00;100749.75;6088769;19;20448;-74
2023/10/13 03:47:45;;;;;;;13.45;6.05;;;;;;;15.85;100.00;100753.69;6089946;19;20007;-74
2023/10/13 03:49:54;;;;;;;17.00;6.95;;;;;;;15.80;100.00;100746.03;6089520;19;20097;-75
2023/10/13 03:52:05;;;;;;;12.80;6.35;;;;;;;15.79;100.00;100739.88;6090441;19;20017;-74
2023/10/13 03:54:15;;;;;;;15.00;6.47;;;;;;;15.81;100.00;100731.84;6091504;19;20034;-75
2023/10/13 03:56:26;;;;;;;16.27;6.22;;;;;;;15.86;100.00;100742.16;6083170;19;20002;-74
2023/10/13 03:58:35;;;;;;;16.50;6.68;;;;;;;15.86;100.00;100739.50;6091169;19;20106;-73
2023/10/13 04:00:42;;;;;;;15.95;6.95;;;;;;;15.85;100.00;100730.69;6087213;19;20336;-72
2023/10/13 04:03:07;;;;;;;14.60;6.95;;;;;;;15.89;100.00;100723.41;6090698;19;20387;-74
2023/10/13 04:05:33;;;;;;;16.17;7.28;;;;;;;15.90;100.00;100720.63;6091711;19;20014;-74
2023/10/13 04:08:44;;;;;;;16.92;8.10;;;;;;;15.94;100.00;100719.50;6089998;19;20878;-73
2023/10/13 04:11:41;;;;;;;15.63;7.22;;;;;;;16.08;100.00;100717.75;6089050;19;20030;-73
2023/10/13 04:15:21;;;;;;;18.15;9.13;;;;;;;16.06;100.00;100709.03;5982545;19;2004853;-75
2023/10/13 04:17:27;;;;;;;21.67;8.55;;;;;;;16.07;100.00;100716.91;6091646;19;20137;-73
2023/10/13 04:19:45;;;;;;;17.45;8.38;;;;;;;16.14;100.00;100707.59;6089195;19;20074;-74
2023/10/13 04:22:14;;;;;;;14.20;7.30;;;;;;;16.17;100.00;100696.78;6088979;19;20041;-75
2023/10/13 04:26:42;;;;;;;12.95;6.75;;;;;;;16.21;100.00;100718.63;6089936;19;20367;-74
2023/10/13 04:28:53;;;;;;;17.02;6.93;;;;;;;16.24;100.00;100682.19;6090682;19;20588;-73
2023/10/13 04:31:06;;;;;;;16.63;8.15;;;;;;;16.27;100.00;100674.94;6087830;19;20355;-73
2023/10/13 04:33:35;;;;;;;14.23;6.80;;;;;;;16.29;100.00;100676.53;5998278;19;2004750;-73
2023/10/13 04:35:47;;;;;;;16.50;7.18;;;;;;;16.36;100.00;100685.78;6083340;19;20133;-73
2023/10/13 04:37:58;;;;;;;17.88;7.10;;;;;;;16.41;100.00;100677.53;6087868;19;20021;-73
2023/10/13 04:40:10;;;;;;;11.73;6.22;;;;;;;16.48;100.00;100677.97;6088143;19;20507;-74
2023/10/13 04:42:38;;;;;;;16.80;6.28;;;;;;;16.52;100.00;100675.00;6087370;19;20479;-73
2023/10/13 04:44:48;;;;;;;13.43;6.82;;;;;;;16.55;100.00;100679.25;6087412;19;20007;-74
2023/10/13 04:47:07;;;;;;;20.13;7.67;;;;;;;16.56;100.00;100676.50;6086200;19;20015;-76
2023/10/13 04:49:27;;;;;;;16.65;6.72;;;;;;;16.60;100.00;100670.03;6084358;19;20018;-74
2023/10/13 04:51:49;;;;;;;13.90;7.53;;;;;;;16.66;100.00;100660.78;5983771;19;2005211;-72
2023/10/13 04:54:11;;;;;;;13.07;7.28;;;;;;;16.67;100.00;100657.19;6085490;19;20014;-73
2023/10/13 05:06:10;;;;;;;16.27;6.10;;;;;;;16.61;100.00;100654.94;5981458;19;2006833;-72
2023/10/13 05:46:20;;;;;;;16.63;6.25;;;;;;;16.06;100.00;100587.97;6088273;19;20037;-74
2023/10/13 05:48:15;;;;;;;13.73;5.20;;;;;;;16.08;100.00;100587.84;5983067;19;2004791;-73
2023/10/13 05:50:49;;;;;;;15.35;4.63;;;;;;;16.11;100.00;100579.69;6088973;19;20453;-73
2023/10/13 06:29:58;;;;;;;21.48;7.97;;;;;;;16.58;100.00;100498.66;6079081;19;20034;-72
2023/10/13 06:32:10;;;;;;;18.73;9.20;;;;;;;16.59;100.00;100506.50;6082166;19;20010;-72
2023/10/13 06:34:28;;;;;;;18.95;9.05;;;;;;;16.67;100.00;100498.84;6084806;19;20025;-73
2023/10/13 06:36:33;;;;;;;20.98;9.55;;;;;;;16.69;100.00;100490.75;6086714;19;20006;-73
2023/10/13 06:38:36;;;;;;;22.65;10.30;;;;;;;16.73;100.00;100480.78;6079583;19;20023;-72
2023/10/13 06:40:48;;;;;;;21.48;11.15;;;;;;;16.76;100.00;100494.69;6080072;19;20003;-73
2023/10/13 06:43:11;;;;;;;23.88;10.95;;;;;;;16.75;100.00;100484.19;6084546;19;20063;-73
2023/10/13 06:45:28;;;;;;;24.05;10.70;;;;;;;16.76;100.00;100485.88;6070004;19;20027;-73
2023/10/13 06:47:39;;;;;;;22.52;10.60;;;;;;;16.77;100.00;100482.25;6079965;19;20640;-73
2023/10/13 06:49:51;;;;;;;20.30;9.85;;;;;;;16.81;100.00;100478.47;6082298;19;20310;-74
2023/10/13 06:52:00;;;;;;;20.65;8.98;;;;;;;16.85;100.00;100469.31;6080241;19;20006;-73
2023/10/13 06:54:09;;;;;;;21.20;9.00;;;;;;;16.88;100.00;100463.81;6076735;19;20033;-72
2023/10/13 06:56:22;;;;;;;19.25;9.77;;;;;;;16.92;100.00;100470.56;6077173;19;20045;-72
2023/10/13 06:58:29;;;;;;;21.52;8.43;;;;;;;16.93;100.00;100479.38;6068864;19;20009;-73
2023/10/13 07:00:35;;;;;;;19.00;8.27;;;;;;;16.98;100.00;100461.28;6082467;19;20832;-73
2023/10/13 07:02:43;;;;;;;22.15;9.55;;;;;;;17.02;100.00;100452.16;6080201;19;20018;-73
2023/10/13 07:04:56;;;;;;;20.13;8.40;;;;;;;17.03;100.00;100459.16;6081297;19;20041;-71
2023/10/13 07:07:05;;;;;;;16.77;6.82;;;;;;;17.06;100.00;100483.69;6079902;19;20479;-73
2023/10/13 07:09:24;;;;;;;17.50;7.75;;;;;;;17.06;100.00;100489.00;6079807;19;20484;-73
2023/10/13 07:11:39;;;;;;;15.20;6.68;;;;;;;17.12;100.00;100490.34;6084291;19;20979;-74
2023/10/13 07:13:52;;;;;;;17.95;7.25;;;;;;;17.15;100.00;100487.47;6088409;19;20538;-75
2023/10/13 07:16:00;;;;;;;19.70;7.38;;;;;;;17.15;100.00;100486.63;6085148;19;20049;-72
2023/10/13 07:18:23;;;;;;;18.93;8.93;;;;;;;17.14;100.00;100458.34;6087384;19;20010;-73
2023/10/13 07:20:36;;;;;;;22.25;8.07;;;;;;;17.13;100.00;100467.28;6084543;19;20025;-73
2023/10/13 07:22:54;;;;;;;16.60;8.00;;;;;;;17.18;100.00;100468.66;6085789;19;20037;-73
2023/10/13 07:25:06;;;;;;;14.93;6.72;;;;;;;17.15;100.00;100455.59;5985655;19;2004741;-71
2023/10/13 07:27:09;;;;;;;21.33;8.95;;;;;;;17.18;100.00;100470.47;6085567;19;20015;-73
2023/10/13 07:29:15;;;;;;;16.85;7.60;;;;;;;17.27;100.00;100449.38;6085173;19;20011;-75
2023/10/13 07:31:20;;;;;;;17.10;7.30;;;;;;;17.33;100.00;100448.09;6085850;19;20090;-74
2023/10/13 07:33:25;;;;;;;17.75;7.47;;;;;;;17.33;100.00;100446.25;6083032;19;20068;-74
2023/10/13 07:35:35;;;;;;;16.48;7.18;;;;;;;17.42;100.00;100443.88;6086133;19;19999;-73
2023/10/13 07:37:41;;;;;;;20.15;8.52;;;;;;;17.55;100.00;100450.78;6083914;19;20013;-73
2023/10/13 07:39:50;;;;;;;18.65;6.70;;;;;;;17.57;100.00;100447.19;6086639;19;20010;-73
2023/10/13 07:41:54;;;;;;;17.42;6.65;;;;;;;17.64;100.00;100456.38;6083780;19;20007;-72
2023/10/13 07:43:59;;;;;;;16.23;6.93;;;;;;;17.67;100.00;100453.50;6077744;19;20554;-73
2023/10/13 07:46:09;;;;;;;20.90;6.82;;;;;;;17.72;100.00;100444.22;6081688;19;20010;-72
2023/10/13 07:48:21;;;;;;;20.55;7.35;;;;;;;17.79;100.00;100452.56;6085403;19;20007;-72
2023/10/13 07:50:27;;;;;;;21.08;6.32;;;;;;;17.81;100.00;100444.50;6087800;19;20033;-72
2023/10/13 07:52:54;;;;;;;19.38;6.28;;;;;;;17.87;100.00;100436.03;6082010;19;20420;-73
2023/10/13 07:55:10;;;;;;;13.15;5.88;;;;;;;17.83;100.00;100435.44;6085057;19;20028;-71
2023/10/13 07:57:27;;;;;;;19.83;7.40;;;;;;;17.92;100.00;100433.88;6089896;19;20011;-73
2023/10/13 07:59:32;;;;;;;17.95;6.13;;;;;;;17.89;100.00;100429.63;6086352;19;20021;-74
2023/10/13 08:01:42;;;;;;;20.98;7.45;;;;;;;17.88;100.00;100427.13;6086466;19;20492;-75
2023/10/13 08:04:04;;;;;;;15.82;6.07;;;;;;;17.90;100.00;100425.16;6088945;19;20436;-75
2023/10/13 08:06:25;;;;;;;15.05;6.43;;;;;;;17.88;100.00;100417.31;6089838;19;20013;-74
2023/10/13 08:08:37;;;;;;;17.63;6.88;;;;;;;17.90;100.00;100431.31;6088095;19;20082;-74
2023/10/13 08:10:45;;;;;;;13.27;5.90;;;;;;;17.99;100.00;100432.44;6086660;19;20734;-74
2023/10/13 08:12:51;;;;;;;20.35;7.13;;;;;;;17.99;100.00;100419.97;6087234;19;20010;-73
2023/10/13 08:17:16;;;;;;;15.23;7.22;;;;;;;18.02;100.00;100418.06;5983607;19;2005172;-75
2023/10/13 08:19:26;;;;;;;16.27;6.32;;;;;;;18.10;100.00;100431.59;6084776;19;20006;-73
2023/10/13 08:21:31;;;;;;;16.33;7.60;;;;;;;18.03;100.00;100401.97;6084274;19;20023;-74
2023/10/13 08:30:54;;;;;;;20.80;7.30;;;;;;;17.97;100.00;100395.31;6085441;19;20066;-74
2023/10/13 08:32:58;;;;;;;15.77;6.95;;;;;;;17.99;100.00;100387.25;6087826;19;20585;-73
2023/10/13 08:35:33;;;;;;;15.50;5.80;;;;;;;18.06;100.00;100392.91;6087990;19;20039;-72
2023/10/13 08:37:59;;;;;;;16.95;6.18;;;;;;;18.05;100.00;100399.19;5984662;19;2005430;-73
2023/10/13 08:43:09;;;;;;;13.00;6.55;;;;;;;18.11;100.00;100385.41;6085920;19;20391;-73
2023/10/13 08:45:53;;;;;;;18.63;6.25;;;;;;;18.16;100.00;100397.38;6090611;19;20007;-76
2023/10/13 08:48:07;;;;;;;13.40;6.30;;;;;;;18.18;100.00;100378.63;5984630;19;2004541;-76
2023/10/13 08:50:47;;;;;;;16.15;5.90;;;;;;;18.18;100.00;100389.28;6089624;19;20813;-76
2023/10/13 08:52:49;;;;;;;17.70;5.72;;;;;;;18.20;100.00;100379.38;6088364;19;20074;-75
2023/10/13 08:55:12;;;;;;;18.08;6.38;;;;;;;18.22;100.00;100374.78;6089202;19;20045;-75
2023/10/13 08:57:30;;;;;;;15.02;5.97;;;;;;;18.22;100.00;100380.09;6088596;19;20030;-78
2023/10/13 08:59:52;;;;;;;15.75;5.93;;;;;;;18.29;100.00;100385.75;6084912;19;20608;-76
2023/10/13 09:01:59;;;;;;;16.55;6.13;;;;;;;18.27;100.00;100379.72;6085966;19;20090;-75
2023/10/13 09:06:26;;;;;;;17.92;6.70;;;;;;;18.33;100.00;100368.59;6083682;19;20006;-76
2023/10/13 09:08:35;;;;;;;19.00;7.45;;;;;;;18.32;100.00;100370.38;6084633;19;20023;-76
2023/10/13 09:11:05;;;;;;;17.13;6.63;;;;;;;18.38;100.00;100351.28;6085698;19;20003;-77
2023/10/13 09:13:18;;;;;;;19.15;7.40;;;;;;;18.35;100.00;100332.94;6084966;19;20018;-74
2023/10/13 09:15:59;;;;;;;22.02;6.10;;;;;;;18.37;100.00;100351.41;6087142;19;20010;-74
2023/10/13 09:18:12;;;;;;;13.35;6.55;;;;;;;18.34;100.00;100356.97;5982780;19;2004861;-74
2023/10/13 09:20:42;;;;;;;19.42;7.03;;;;;;;18.37;100.00;100352.25;6084830;19;20010;-74
2023/10/13 09:22:54;;;;;;;20.27;6.70;;;;;;;18.35;100.00;100348.00;6085951;19;20122;-75
2023/10/13 09:25:01;;;;;;;29.80;6.85;;;;;;;18.45;100.00;100350.78;6086422;19;20571;-74
2023/10/13 09:27:05;;;;;;;17.48;7.03;;;;;;;18.48;100.00;100337.22;6083860;19;20015;-72
2023/10/13 09:29:21;;;;;;;24.60;7.55;;;;;;;18.46;100.00;100339.16;6085580;19;20577;-73
2023/10/13 09:31:32;;;;;;;17.67;7.10;;;;;;;18.55;100.00;100341.09;6086867;19;20268;-74
2023/10/13 09:33:49;;;;;;;15.32;5.93;;;;;;;18.55;100.00;100331.28;6082918;19;20011;-74
2023/10/13 09:35:53;;;;;;;19.10;7.15;;;;;;;18.58;100.00;100311.56;6105898;19;20027;-72
2023/10/13 09:38:02;;;;;;;16.85;8.15;;;;;;;18.61;100.00;100313.97;6082968;19;20413;-72
2023/10/13 09:40:24;;;;;;;17.05;6.53;;;;;;;18.70;100.00;100318.53;6079486;19;20003;-72
2023/10/13 09:42:31;;;;;;;14.60;6.53;;;;;;;18.74;100.00;100317.28;6083407;19;20041;-74
2023/10/13 09:44:40;;;;;;;15.60;6.28;;;;;;;18.74;100.00;100309.31;6083628;19;20093;-73
2023/10/13 09:46:46;;;;;;;21.13;6.43;;;;;;;18.74;100.00;100311.97;6079014;19;19998;-73
2023/10/13 09:49:04;;;;;;;17.23;7.00;;;;;;;18.78;100.00;100308.13;6084747;19;20012;-73
2023/10/13 09:51:19;;;;;;;19.75;6.82;;;;;;;18.78;100.00;100310.78;6084739;19;20014;-73
2023/10/13 09:53:23;;;;;;;20.25;7.55;;;;;;;18.72;100.00;100299.75;6082367;19;20348;-75
2023/10/13 09:55:33;;;;;;;15.57;7.03;;;;;;;18.75;100.00;100308.38;6079194;19;20014;-77
2023/10/13 09:57:44;;;;;;;19.40;6.53;;;;;;;18.92;100.00;100306.13;6081024;19;20013;-77
2023/10/13 10:00:05;;;;;;;20.55;7.28;;;;;;;18.97;100.00;100294.09;6081141;19;20028;-74
2023/10/13 10:02:18;;;;;;;22.33;6.90;;;;;;;19.03;100.00;100300.72;5978775;19;2004534;-75
2023/10/13 10:04:24;;;;;;;25.83;8.43;;;;;;;19.11;100.00;100292.94;6081565;19;20007;-75
2023/10/13 10:06:38;;;;;;;23.10;8.50;;;;;;;19.15;100.00;100304.19;6082365;19;20032;-74
2023/10/13 10:08:56;;;;;;;20.35;6.95;;;;;;;19.32;100.00;100286.75;6082568;19;20010;-76
2023/10/13 10:11:34;;;;;;;13.60;5.60;;;;;;;19.39;100.00;100282.59;6083439;19;20007;-75
2023/10/13 10:13:57;;;;;;;16.75;7.00;;;;;;;19.49;100.00;100283.47;6079945;19;20443;-75
2023/10/13 10:16:14;;;;;;;18.25;6.80;;;;;;;19.55;100.00;100277.59;6083135;19;20419;-75
2023/10/13 10:18:25;;;;;;;16.40;6.97;;;;;;;19.58;100.00;100280.00;5994572;19;2004878;-75
2023/10/13 10:20:39;;;;;;;21.08;7.95;;;;;;;19.58;100.00;100290.66;6080263;19;20010;-72
2023/10/13 10:23:01;;;;;;;18.67;7.00;;;;;;;19.61;100.00;100289.56;6084335;19;20133;-71
2023/10/13 10:25:24;;;;;;;17.30;7.65;;;;;;;19.63;100.00;100291.09;6078722;19;20006;-75
2023/10/13 10:27:31;;;;;;;22.70;6.93;;;;;;;19.60;100.00;100291.38;6081546;19;20070;-72
2023/10/13 10:29:41;;;;;;;24.38;8.35;;;;;;;19.56;100.00;100281.09;6079357;19;20441;-73
2023/10/13 10:31:51;;;;;;;22.48;7.63;;;;;;;19.50;100.00;100279.81;6083108;19;20023;-72
2023/10/13 10:33:59;;;;;;;18.55;7.78;;;;;;;19.44;100.00;100270.53;6081600;19;20264;-74
2023/10/13 10:36:05;;;;;;;22.35;7.78;;;;;;;19.47;100.00;100275.59;6078668;19;20013;-78
2023/10/13 10:38:11;;;;;;;29.05;7.88;;;;;;;19.48;100.00;100266.66;6079975;19;20317;-77
2023/10/13 10:42:40;;;;;;;18.30;8.40;;;;;;;19.53;100.00;100252.91;5979102;19;2005043;-75
2023/10/13 10:44:47;;;;;;;22.30;8.00;;;;;;;19.56;100.00;100252.63;6081904;19;20572;-75
2023/10/13 10:47:01;;;;;;;20.25;8.30;;;;;;;19.63;100.00;100263.63;6086613;19;20114;-76
2023/10/13 10:49:08;;;;;;;19.13;7.95;;;;;;;19.64;100.00;100259.97;6090933;19;20045;-75
2023/10/13 10:51:21;;;;;;;19.63;7.00;;;;;;;19.64;100.00;100250.16;6091617;19;20102;-77
2023/10/13 10:53:33;;;;;;;18.90;7.25;;;;;;;19.62;100.00;100252.13;6088520;19;20086;-75
2023/10/13 10:55:41;;;;;;;19.63;9.23;;;;;;;19.66;100.00;100237.56;6089069;19;20012;-76
2023/10/13 10:57:48;;;;;;;18.23;8.38;;;;;;;19.64;100.00;100212.84;6090565;19;20006;-77
2023/10/13 11:00:10;;;;;;;25.58;8.50;;;;;;;19.74;100.00;100236.88;6090442;19;20041;-71
2023/10/13 11:02:27;;;;;;;20.05;8.05;;;;;;;19.79;100.00;100231.97;6090110;19;20054;-72
2023/10/13 11:04:40;;;;;;;20.75;7.03;;;;;;;19.89;100.00;100216.00;6092476;19;20002;-72
2023/10/13 11:06:54;;;;;;;21.27;7.68;;;;;;;19.95;100.00;100210.13;5989270;19;2004807;-76
2023/10/13 11:09:18;;;;;;;25.13;7.50;;;;;;;20.04;100.00;100225.31;6091615;19;20025;-77
2023/10/13 11:11:35;;;;;;;21.75;8.20;;;;;;;20.09;100.00;100231.06;6091699;19;20007;-75
2023/10/13 11:14:13;;;;;;;23.05;7.10;;;;;;;20.14;100.00;100220.84;6090356;19;20446;-72
2023/10/13 11:16:23;;;;;;;25.15;8.75;;;;;;;20.29;99.39;100212.41;6090914;19;20444;-76
2023/10/13 11:18:40;;;;;;;17.42;7.63;;;;;;;20.35;98.37;100228.72;6091169;19;20480;-76
2023/10/13 11:20:54;;;;;;;23.55;7.50;;;;;;;20.37;99.18;100212.53;6090570;19;20011;-73
2023/10/13 11:22:59;;;;;;;17.33;7.35;;;;;;;20.36;98.92;100206.38;6006730;19;2004874;-75
2023/10/13 11:25:10;;;;;;;20.85;7.88;;;;;;;20.31;98.59;100208.63;6092283;19;20570;-73
2023/10/13 11:27:43;;;;;;;18.55;7.40;;;;;;;20.33;98.18;100220.00;6091073;19;20522;-72
2023/10/13 11:29:51;;;;;;;23.52;7.85;;;;;;;20.25;97.35;100225.19;6086154;19;20007;-72
2023/10/13 11:32:04;;;;;;;16.58;6.95;;;;;;;20.29;97.93;100233.75;6086742;19;20446;-72
2023/10/13 11:34:21;;;;;;;21.25;7.70;;;;;;;20.37;94.65;100226.72;6086133;19;20605;-71
2023/10/13 11:36:32;;;;;;;23.52;8.80;;;;;;;20.44;94.55;100227.00;6084175;19;20367;-72
2023/10/13 11:38:43;;;;;;;20.65;8.35;;;;;;;20.44;95.00;100210.16;6090540;19;20368;-73
2023/10/13 11:43:14;;;;;;;20.40;7.93;;;;;;;20.45;94.02;100218.00;6008380;19;2005007;-73
2023/10/13 11:45:29;;;;;;;18.90;7.20;;;;;;;20.45;92.36;100223.34;6088526;19;20070;-73
2023/10/13 11:47:47;;;;;;;19.08;7.60;;;;;;;20.46;94.21;100224.19;6090947;19;20035;-73
2023/10/13 11:49:58;;;;;;;20.73;7.85;;;;;;;20.42;93.17;100218.31;6084192;19;20014;-76